Time;durP1;ratioP1;P1;durP2;ratioP2;P2;SDS_P1;SDS_P2;PMS_P1;PMS_P2;Temp;Humidity;BMP_temperature;BMP_pressure;BME280_temperature;BME280_humidity;BME280_pressure;Samples;Min_cycle;Max_cycle;Signal;HPM_P1;HPM_P2
2023/03/19 00:01:22;;;;;;;9.57;6.10;;;;;;;2.63;71.19;100455.88;6297723;28;20520;-70
2023/03/19 00:04:25;;;;;;;11.45;6.18;;;;;;;2.59;71.07;100453.41;6297891;28;20040;-73
2023/03/19 00:07:26;;;;;;;9.23;5.43;;;;;;;2.61;72.49;100452.53;6299513;28;20098;-73
2023/03/19 00:10:26;;;;;;;12.70;6.30;;;;;;;2.60;74.12;100457.72;6299104;28;20063;-69
2023/03/19 00:13:27;;;;;;;9.63;5.82;;;;;;;2.58;73.79;100449.16;6298721;28;20048;-69
2023/03/19 00:16:28;;;;;;;10.80;6.05;;;;;;;2.56;73.60;100451.75;6297674;28;20067;-69
2023/03/19 00:19:29;;;;;;;12.88;6.75;;;;;;;2.52;74.42;100441.56;6297589;28;20040;-73
2023/03/19 00:22:29;;;;;;;15.20;7.03;;;;;;;2.50;74.66;100441.59;6297713;28;20055;-70
2023/03/19 00:25:31;;;;;;;10.77;6.40;;;;;;;2.45;75.34;100438.28;6296966;28;20059;-69
2023/03/19 00:28:32;;;;;;;13.55;7.38;;;;;;;2.50;74.82;100443.34;6296672;28;20503;-69
2023/03/19 00:31:34;;;;;;;18.73;6.68;;;;;;;2.44;75.05;100428.84;6298098;28;20044;-70
2023/03/19 00:34:35;;;;;;;15.67;7.17;;;;;;;2.48;74.57;100437.38;6297549;28;20087;-73
2023/03/19 00:37:36;;;;;;;10.27;6.15;;;;;;;2.45;75.64;100430.56;6297941;28;20280;-73
2023/03/19 00:40:39;;;;;;;17.88;8.10;;;;;;;2.47;76.46;100428.78;6297772;28;20385;-69
2023/03/19 00:43:40;;;;;;;22.73;7.95;;;;;;;2.40;74.34;100435.78;6298030;28;20469;-69
2023/03/19 00:46:41;;;;;;;11.10;6.95;;;;;;;2.41;74.04;100436.66;6296504;28;20087;-70
2023/03/19 00:49:42;;;;;;;10.43;6.82;;;;;;;2.46;75.82;100426.25;6296834;28;20037;-73
2023/03/19 00:52:42;;;;;;;15.90;6.68;;;;;;;2.40;77.10;100438.34;6296882;28;20385;-69
2023/03/19 00:55:43;;;;;;;12.23;6.72;;;;;;;2.38;76.61;100437.53;6331192;28;20052;-69
2023/03/19 00:58:44;;;;;;;25.92;8.38;;;;;;;2.39;76.49;100433.25;6297523;28;20041;-69
2023/03/19 01:01:45;;;;;;;17.73;7.40;;;;;;;2.37;78.66;100440.19;6297505;28;20484;-69
2023/03/19 01:04:49;;;;;;;13.20;7.75;;;;;;;2.36;77.17;100435.88;6296723;28;20047;-70
2023/03/19 01:07:50;;;;;;;12.30;6.75;;;;;;;2.39;76.19;100431.53;6296867;28;20496;-73
2023/03/19 01:10:51;;;;;;;14.73;7.15;;;;;;;2.30;77.83;100434.28;6330241;28;20127;-69
2023/03/19 01:13:52;;;;;;;12.07;6.68;;;;;;;2.28;76.58;100436.03;6297594;28;20123;-69
2023/03/19 01:16:55;;;;;;;14.95;7.93;;;;;;;2.27;78.21;100438.66;6296943;28;20107;-69
2023/03/19 01:20:07;;;;;;;19.48;7.53;;;;;;;2.25;79.28;100433.53;6327926;28;20044;-69
2023/03/19 01:23:11;;;;;;;10.25;6.75;;;;;;;2.19;77.65;100429.38;6297556;28;20068;-73
2023/03/19 01:26:11;;;;;;;13.40;7.43;;;;;;;2.17;78.10;100435.44;6330462;28;20044;-73
2023/03/19 01:29:15;;;;;;;12.38;7.00;;;;;;;2.14;78.11;100435.47;6296402;28;20053;-69
2023/03/19 01:32:15;;;;;;;15.90;7.32;;;;;;;2.09;78.35;100440.72;6296382;28;20049;-73
2023/03/19 01:35:16;;;;;;;11.55;6.55;;;;;;;2.04;79.51;100442.56;6296066;28;20131;-69
2023/03/19 01:38:18;;;;;;;13.65;6.40;;;;;;;1.99;79.35;100434.06;6297944;28;20043;-73
2023/03/19 01:41:19;;;;;;;13.82;7.88;;;;;;;2.00;80.17;100449.47;6296269;28;20041;-73
2023/03/19 01:44:31;;;;;;;8.75;5.63;;;;;;;1.84;80.35;100432.63;6297821;28;20144;-73
2023/03/19 01:47:37;;;;;;;15.70;7.32;;;;;;;1.83;80.33;100442.94;6297057;28;20045;-69
2023/03/19 01:50:43;;;;;;;13.73;7.35;;;;;;;1.74;79.58;100446.56;6298099;28;20040;-73
2023/03/19 01:53:52;;;;;;;15.07;5.90;;;;;;;1.71;78.84;100444.88;6296093;28;20040;-69
2023/03/19 01:57:07;;;;;;;14.80;6.50;;;;;;;1.68;79.57;100446.66;6295819;28;20123;-73
2023/03/19 02:00:11;;;;;;;9.57;6.03;;;;;;;1.66;79.78;100446.69;6297067;28;20040;-69
2023/03/19 02:03:12;;;;;;;10.40;5.82;;;;;;;1.64;79.08;100435.56;6329684;28;20049;-73
2023/03/19 02:06:14;;;;;;;10.10;5.55;;;;;;;1.61;79.14;100440.78;6297009;28;20075;-73
2023/03/19 02:09:17;;;;;;;10.95;6.28;;;;;;;1.63;78.78;100448.44;6297268;28;20560;-73
2023/03/19 02:12:20;;;;;;;11.85;5.93;;;;;;;1.65;78.53;100450.16;6295940;28;20647;-70
2023/03/19 02:15:21;;;;;;;9.32;5.80;;;;;;;1.59;79.00;100447.69;6297248;28;20074;-69
2023/03/19 02:18:26;;;;;;;11.65;5.43;;;;;;;1.58;80.22;100458.81;6295365;28;20049;-69
2023/03/19 02:21:28;;;;;;;19.50;6.13;;;;;;;1.57;80.13;100465.72;6295647;28;20465;-73
2023/03/19 02:24:34;;;;;;;13.00;6.10;;;;;;;1.54;80.86;100452.88;6297194;28;20039;-73
2023/03/19 02:27:35;;;;;;;12.45;5.97;;;;;;;1.55;80.83;100461.47;6295494;28;20032;-73
2023/03/19 02:30:36;;;;;;;10.85;5.82;;;;;;;1.57;80.17;100458.00;6297376;28;20072;-73
2023/03/19 02:33:37;;;;;;;16.20;6.20;;;;;;;1.56;79.86;100456.28;6297486;28;20079;-73
2023/03/19 02:36:43;;;;;;;8.82;5.30;;;;;;;1.58;80.18;100456.25;6295287;28;20273;-69
2023/03/19 02:40:04;;;;;;;15.60;6.50;;;;;;;1.56;80.41;100456.28;6296643;28;20044;-73
2023/03/19 02:43:05;;;;;;;13.60;7.20;;;;;;;1.52;80.43;100453.78;6297016;28;20044;-73
2023/03/19 02:46:11;;;;;;;10.27;5.32;;;;;;;1.52;80.45;100462.34;6295573;28;20045;-69
2023/03/19 02:49:12;;;;;;;7.22;4.95;;;;;;;1.48;80.53;100457.28;6296347;28;20123;-69
2023/03/19 02:52:14;;;;;;;11.23;4.88;;;;;;;1.44;80.24;100455.66;6294989;28;20055;-69
2023/03/19 02:55:17;;;;;;;12.02;5.93;;;;;;;1.47;80.02;100453.88;6294631;28;20040;-69
2023/03/19 02:58:18;;;;;;;9.35;5.32;;;;;;;1.46;81.21;100462.44;6296286;28;20465;-69
2023/03/19 03:01:19;;;;;;;13.98;6.10;;;;;;;1.45;81.31;100465.06;6300665;28;20481;-73
2023/03/19 03:04:20;;;;;;;10.93;5.57;;;;;;;1.41;81.26;100452.25;6301011;28;20072;-73
2023/03/19 03:07:23;;;;;;;12.60;5.38;;;;;;;1.41;80.90;100456.56;6300436;28;20097;-73
2023/03/19 03:10:24;;;;;;;11.65;6.38;;;;;;;1.44;81.17;100456.50;6299678;28;20439;-69
2023/03/19 03:13:25;;;;;;;16.42;5.97;;;;;;;1.41;81.48;100454.81;6332926;28;20048;-73
2023/03/19 03:16:26;;;;;;;18.42;7.00;;;;;;;1.43;80.15;100451.41;6299995;28;20095;-73
2023/03/19 03:19:26;;;;;;;10.40;5.75;;;;;;;1.48;80.45;100457.28;6300333;28;20070;-69
2023/03/19 03:22:27;;;;;;;10.02;5.75;;;;;;;1.39;80.94;100446.28;6299974;28;20094;-69
2023/03/19 03:25:31;;;;;;;9.45;5.80;;;;;;;1.42;80.78;100453.09;6300797;28;20045;-73
2023/03/19 03:28:32;;;;;;;10.30;6.10;;;;;;;1.43;82.85;100454.81;6300397;28;20105;-69
2023/03/19 03:31:33;;;;;;;11.40;4.75;;;;;;;1.43;84.73;100452.25;6299756;28;20068;-70
2023/03/19 03:34:35;;;;;;;10.98;5.15;;;;;;;1.44;85.71;100463.38;6299755;28;20045;-69
2023/03/19 03:37:36;;;;;;;10.52;6.05;;;;;;;1.41;85.07;100451.41;6298868;28;20051;-73
2023/03/19 03:40:37;;;;;;;9.88;6.20;;;;;;;1.46;85.04;100459.88;6299049;28;20040;-73
2023/03/19 03:43:38;;;;;;;12.65;6.15;;;;;;;1.43;85.96;100451.41;6299737;28;20068;-69
2023/03/19 03:46:39;;;;;;;15.60;5.75;;;;;;;1.40;86.48;100445.44;6298353;28;20053;-73
2023/03/19 03:49:40;;;;;;;19.10;7.82;;;;;;;1.36;84.79;100453.19;6299918;28;20503;-73
2023/03/19 03:52:41;;;;;;;11.73;6.00;;;;;;;1.31;85.56;100453.28;6298405;28;20041;-69
2023/03/19 03:55:42;;;;;;;11.55;6.57;;;;;;;1.34;86.11;100444.66;6299802;28;20041;-73
2023/03/19 03:58:46;;;;;;;16.90;6.85;;;;;;;1.30;86.80;100443.03;6298639;28;20036;-73
2023/03/19 04:01:47;;;;;;;11.70;5.75;;;;;;;1.28;86.12;100444.78;6299016;28;20040;-73
2023/03/19 04:04:48;;;;;;;13.07;6.40;;;;;;;1.25;85.63;100445.66;6297662;28;20044;-69
2023/03/19 04:07:48;;;;;;;10.15;5.47;;;;;;;1.21;85.47;100444.03;6299024;28;20037;-69
2023/03/19 04:10:49;;;;;;;11.38;7.00;;;;;;;1.18;87.22;100442.34;6297629;28;20455;-69
2023/03/19 04:13:51;;;;;;;22.23;6.72;;;;;;;1.17;86.73;100448.38;6298752;28;20049;-68
2023/03/19 04:16:53;;;;;;;10.85;5.95;;;;;;;1.16;88.11;100438.13;6299221;28;20404;-73
2023/03/19 04:19:53;;;;;;;8.73;4.95;;;;;;;1.11;87.78;100437.34;6297564;28;20052;-73
2023/03/19 04:22:55;;;;;;;13.05;5.68;;;;;;;1.08;87.36;100439.97;6330482;28;20036;-68
2023/03/19 04:26:00;;;;;;;12.80;6.75;;;;;;;1.05;87.22;100433.16;6296816;28;20045;-73
2023/03/19 04:29:01;;;;;;;13.45;6.60;;;;;;;0.92;87.03;100424.78;6297597;28;20048;-69
2023/03/19 04:32:02;;;;;;;12.60;6.30;;;;;;;0.92;86.78;100435.03;6296450;28;20036;-69
2023/03/19 04:35:03;;;;;;;11.50;6.60;;;;;;;0.88;86.95;100435.97;6298314;28;20044;-73
2023/03/19 04:38:04;;;;;;;8.98;5.80;;;;;;;0.82;88.18;100436.06;6297070;28;20480;-69
2023/03/19 04:41:05;;;;;;;16.17;8.25;;;;;;;0.79;87.04;100436.13;6297239;28;20040;-69
2023/03/19 04:44:06;;;;;;;11.32;6.35;;;;;;;0.69;86.44;100432.81;6296825;28;20113;-69
2023/03/19 04:47:07;;;;;;;11.68;7.10;;;;;;;0.66;86.52;100420.03;6298029;28;20054;-73
2023/03/19 04:50:11;;;;;;;10.55;6.00;;;;;;;0.64;86.19;100420.91;6297153;28;20032;-69
2023/03/19 04:53:14;;;;;;;8.10;5.45;;;;;;;0.63;85.53;100422.63;6297883;28;20098;-68
2023/03/19 04:56:16;;;;;;;11.93;7.13;;;;;;;0.65;84.73;100426.03;6296974;28;20512;-69
2023/03/19 04:59:17;;;;;;;18.65;6.82;;;;;;;0.71;84.37;100425.09;6298597;28;20048;-73
2023/03/19 05:02:18;;;;;;;9.40;5.50;;;;;;;0.73;83.55;100434.47;6297336;28;20052;-73
2023/03/19 05:05:18;;;;;;;8.55;5.88;;;;;;;0.73;83.85;100423.38;6296911;28;20436;-73
2023/03/19 05:08:20;;;;;;;12.70;6.53;;;;;;;0.75;84.74;100425.03;6296780;28;20037;-68
2023/03/19 05:11:21;;;;;;;8.85;6.45;;;;;;;0.85;83.93;100424.91;6296271;28;20049;-69
2023/03/19 05:14:21;;;;;;;11.95;6.38;;;;;;;0.75;83.86;100419.91;6297357;28;20052;-69
2023/03/19 05:17:23;;;;;;;15.48;5.55;;;;;;;0.75;83.97;100419.06;6296578;28;20043;-69
2023/03/19 05:20:24;;;;;;;9.75;5.78;;;;;;;0.79;84.78;100424.13;6296344;28;20045;-73
2023/03/19 05:23:24;;;;;;;10.27;5.97;;;;;;;0.82;84.15;100417.22;6297936;28;20142;-73
2023/03/19 05:26:25;;;;;;;11.02;6.68;;;;;;;0.89;84.34;100421.44;6296218;28;20099;-69
2023/03/19 05:29:27;;;;;;;10.93;6.20;;;;;;;0.92;83.71;100417.06;6295779;28;20448;-70
2023/03/19 05:32:28;;;;;;;9.68;5.15;;;;;;;0.99;83.69;100417.84;6296341;28;20041;-73
2023/03/19 05:35:29;;;;;;;11.60;5.53;;;;;;;0.97;83.14;100417.84;6296652;28;20044;-73
2023/03/19 05:38:30;;;;;;;10.73;6.27;;;;;;;0.94;84.96;100415.31;6297920;28;20371;-73
2023/03/19 05:41:33;;;;;;;9.18;4.72;;;;;;;1.05;84.21;100417.75;6296022;28;20053;-68
2023/03/19 05:44:35;;;;;;;9.05;5.57;;;;;;;1.14;83.93;100420.16;6296802;28;20056;-73
2023/03/19 05:47:36;;;;;;;13.10;7.03;;;;;;;1.19;83.40;100420.94;6296534;28;20040;-73
2023/03/19 05:50:41;;;;;;;10.98;6.75;;;;;;;1.25;83.00;100430.25;6296322;28;20449;-73
2023/03/19 05:53:42;;;;;;;14.32;7.22;;;;;;;1.38;82.87;100431.75;6296244;28;20037;-73
2023/03/19 05:56:42;;;;;;;14.23;6.93;;;;;;;1.41;82.41;100425.69;6296779;28;20525;-73
2023/03/19 05:59:43;;;;;;;17.05;7.30;;;;;;;1.60;82.19;100441.66;6296348;28;20396;-73
2023/03/19 06:02:44;;;;;;;11.85;6.70;;;;;;;1.78;80.35;100435.31;6329162;28;20400;-70
2023/03/19 06:05:48;;;;;;;14.43;7.30;;;;;;;1.93;79.89;100437.59;6295624;28;20056;-73
2023/03/19 06:08:51;;;;;;;13.43;7.70;;;;;;;2.11;80.73;100438.13;6296291;28;20045;-73
2023/03/19 06:11:53;;;;;;;13.68;5.55;;;;;;;2.25;80.76;100432.72;6297026;28;20041;-73
2023/03/19 06:14:54;;;;;;;8.70;5.13;;;;;;;2.43;79.16;100427.16;6296080;28;20051;-74
2023/03/19 06:17:54;;;;;;;8.90;4.47;;;;;;;2.57;77.82;100438.03;6296884;28;20143;-69
2023/03/19 06:20:55;;;;;;;8.85;4.93;;;;;;;2.74;77.17;100439.34;6295626;28;20433;-73
2023/03/19 06:23:56;;;;;;;7.00;3.47;;;;;;;2.95;76.13;100443.19;6296116;28;20090;-73
2023/03/19 06:26:57;;;;;;;7.45;4.75;;;;;;;3.19;75.69;100439.16;6296403;28;20048;-73
2023/03/19 06:29:57;;;;;;;12.05;5.00;;;;;;;3.43;73.63;100448.03;6296224;28;20043;-73
2023/03/19 06:32:58;;;;;;;10.30;6.50;;;;;;;3.60;72.95;100445.00;6299026;28;20511;-73
2023/03/19 06:35:59;;;;;;;8.63;5.50;;;;;;;3.70;71.76;100449.03;6300739;28;20056;-73
2023/03/19 06:39:00;;;;;;;11.85;5.65;;;;;;;3.80;71.86;100447.91;6301671;28;20094;-74
2023/03/19 06:42:01;;;;;;;9.27;5.63;;;;;;;4.08;72.81;100449.75;6300999;28;20044;-69
2023/03/19 06:45:02;;;;;;;7.72;5.20;;;;;;;4.23;73.18;100449.31;6300074;28;20052;-73
2023/03/19 06:48:05;;;;;;;11.05;6.68;;;;;;;4.46;72.43;100458.13;6300392;28;20399;-69
2023/03/19 06:51:08;;;;;;;14.45;6.28;;;;;;;4.64;72.25;100449.00;6301350;28;20067;-74
2023/03/19 06:54:09;;;;;;;18.20;6.63;;;;;;;4.85;71.31;100456.09;6301490;28;20059;-74
2023/03/19 06:57:12;;;;;;;7.68;4.80;;;;;;;5.07;69.58;100459.75;6300324;28;20395;-74
2023/03/19 07:00:14;;;;;;;10.60;5.88;;;;;;;5.25;68.89;100464.34;6300028;28;20040;-74
2023/03/19 07:03:15;;;;;;;5.97;3.75;;;;;;;5.52;68.04;100470.34;6333576;28;20543;-74
2023/03/19 07:06:16;;;;;;;11.57;5.93;;;;;;;5.75;66.14;100469.56;6299870;28;20122;-74
2023/03/19 07:09:17;;;;;;;7.05;4.18;;;;;;;6.01;66.30;100475.59;6301124;28;20115;-74
2023/03/19 07:12:18;;;;;;;8.60;4.63;;;;;;;6.16;63.83;100482.84;6300281;28;20037;-70
2023/03/19 07:15:20;;;;;;;8.25;5.18;;;;;;;6.27;64.68;100473.84;6332259;28;20048;-70
2023/03/19 07:18:21;;;;;;;8.27;4.88;;;;;;;6.53;63.58;100478.06;6299600;28;20123;-74
2023/03/19 07:21:22;;;;;;;11.07;5.82;;;;;;;6.59;61.20;100485.56;6300709;28;20041;-74
2023/03/19 07:24:23;;;;;;;9.70;5.30;;;;;;;6.76;61.42;100492.75;6299244;28;20044;-69
2023/03/19 07:27:24;;;;;;;5.45;3.78;;;;;;;7.03;62.13;100483.88;6300064;28;20041;-70
2023/03/19 07:30:25;;;;;;;13.35;5.60;;;;;;;7.27;60.92;100489.00;6298771;28;20119;-69
2023/03/19 07:33:25;;;;;;;7.95;4.18;;;;;;;7.48;59.96;100487.28;6300392;28;20404;-74
2023/03/19 07:36:26;;;;;;;8.63;5.47;;;;;;;7.62;60.52;100481.53;6299875;28;20053;-70
2023/03/19 07:39:27;;;;;;;8.10;4.72;;;;;;;7.79;59.39;100493.81;6299619;28;20401;-69
2023/03/19 07:42:28;;;;;;;12.35;6.13;;;;;;;7.96;57.67;100498.25;6299500;28;20082;-74
2023/03/19 07:45:29;;;;;;;9.52;5.13;;;;;;;7.97;56.30;100493.00;6299442;28;20051;-74
2023/03/19 07:48:30;;;;;;;12.55;5.18;;;;;;;8.23;58.19;100494.44;6298734;28;20033;-70
2023/03/19 07:51:31;;;;;;;7.72;4.03;;;;;;;8.40;56.75;100479.84;6299276;28;20049;-70
2023/03/19 07:54:32;;;;;;;8.60;4.63;;;;;;;8.53;55.35;100491.44;6299509;28;20055;-74
2023/03/19 07:57:33;;;;;;;12.05;4.95;;;;;;;8.68;54.68;100487.28;6297475;28;20032;-70
2023/03/19 08:00:34;;;;;;;10.48;4.80;;;;;;;8.53;53.35;100491.44;6297301;28;20043;-70
2023/03/19 08:03:35;;;;;;;9.82;5.25;;;;;;;8.86;56.66;100491.63;6298342;28;20048;-69
2023/03/19 08:06:37;;;;;;;7.85;4.70;;;;;;;9.07;54.36;100487.16;6297329;28;20047;-75
2023/03/19 08:09:39;;;;;;;8.05;4.00;;;;;;;9.41;55.21;100495.09;6299392;28;20378;-71
2023/03/19 08:12:40;;;;;;;8.30;4.15;;;;;;;9.51;52.69;100485.06;6299331;28;20048;-74
2023/03/19 08:15:41;;;;;;;4.93;3.58;;;;;;;9.69;54.81;100484.16;6299475;28;20305;-75
2023/03/19 08:18:42;;;;;;;10.23;4.50;;;;;;;9.96;52.44;100481.91;6297579;28;20040;-74
2023/03/19 08:21:46;;;;;;;7.75;4.60;;;;;;;10.14;53.56;100477.50;6297574;28;20036;-74
2023/03/19 08:24:47;;;;;;;5.78;3.38;;;;;;;10.31;52.84;100471.41;6299128;28;20072;-75
2023/03/19 08:27:48;;;;;;;5.65;3.38;;;;;;;10.61;50.75;100478.53;6299036;28;20089;-75
2023/03/19 08:30:51;;;;;;;7.82;4.10;;;;;;;10.30;48.35;100472.34;6297975;28;20123;-75
2023/03/19 08:33:54;;;;;;;6.18;4.03;;;;;;;10.67;51.31;100472.97;6297514;28;20072;-71
2023/03/19 08:36:55;;;;;;;7.13;4.35;;;;;;;10.88;49.54;100471.78;6297096;28;20366;-71
2023/03/19 08:39:56;;;;;;;4.75;3.42;;;;;;;11.12;50.13;100468.75;6298131;28;20045;-70
2023/03/19 08:42:57;;;;;;;6.97;3.67;;;;;;;11.15;48.08;100462.50;6298552;28;20047;-75
2023/03/19 08:46:00;;;;;;;5.65;3.63;;;;;;;11.41;47.52;100468.84;6296724;28;20132;-70
2023/03/19 08:49:01;;;;;;;7.97;4.55;;;;;;;11.62;49.17;100470.19;6298111;28;20519;-71
2023/03/19 08:52:03;;;;;;;5.32;3.50;;;;;;;11.84;47.30;100461.94;6297401;28;20151;-75
2023/03/19 08:55:06;;;;;;;5.72;3.67;;;;;;;11.98;47.79;100475.97;6297266;28;20458;-70
2023/03/19 08:58:06;;;;;;;7.60;5.35;;;;;;;12.02;46.15;100462.59;6298416;28;20048;-75
2023/03/19 09:01:10;;;;;;;8.15;5.07;;;;;;;12.25;46.89;100466.47;6330757;28;20044;-75
2023/03/19 09:04:10;;;;;;;6.60;4.20;;;;;;;12.45;45.79;100462.59;6296791;28;20043;-75
2023/03/19 09:07:14;;;;;;;6.05;3.97;;;;;;;12.48;44.58;100449.34;6297541;28;20408;-75
2023/03/19 09:10:15;;;;;;;4.88;3.70;;;;;;;12.42;44.30;100448.88;6297568;28;20040;-75
2023/03/19 09:13:16;;;;;;;7.25;3.90;;;;;;;12.83;47.22;100448.88;6296084;28;20048;-70
2023/03/19 09:16:17;;;;;;;4.90;2.95;;;;;;;13.20;44.40;100445.63;6295853;28;20044;-75
2023/03/19 09:19:18;;;;;;;4.87;3.40;;;;;;;13.12;40.80;100447.94;6296187;28;20488;-75
2023/03/19 09:22:19;;;;;;;7.03;3.08;;;;;;;13.42;40.98;100445.09;6329893;28;20040;-75
2023/03/19 09:25:22;;;;;;;4.57;2.75;;;;;;;13.44;41.79;100444.03;6329511;28;20488;-75
2023/03/19 09:28:23;;;;;;;4.70;3.10;;;;;;;13.60;41.87;100433.38;6297287;28;20519;-75
2023/03/19 09:31:24;;;;;;;5.60;3.30;;;;;;;13.59;40.92;100438.72;6296718;28;20044;-71
2023/03/19 09:34:25;;;;;;;5.78;2.70;;;;;;;13.83;40.40;100429.16;6303245;28;20044;-75
2023/03/19 09:37:26;;;;;;;4.85;2.88;;;;;;;13.82;39.99;100422.25;6321870;28;20457;-75
2023/03/19 09:40:47;;;;;;;4.97;3.05;;;;;;;14.05;40.77;100430.34;6320428;28;20044;-71
2023/03/19 09:43:57;;;;;;;5.65;3.30;;;;;;;14.57;40.68;100420.59;6320052;28;20533;-70
2023/03/19 09:47:16;;;;;;;3.88;2.67;;;;;;;14.81;37.70;100417.97;6320077;28;20076;-71
2023/03/19 09:50:23;;;;;;;4.28;2.60;;;;;;;14.97;38.80;100412.41;6320213;28;20067;-75
2023/03/19 09:53:52;;;;;;;4.13;2.75;;;;;;;14.90;38.64;100406.78;6321750;28;20071;-76
2023/03/19 09:56:53;;;;;;;4.65;2.78;;;;;;;15.25;38.37;100404.16;6321507;28;20044;-76
2023/03/19 09:59:56;;;;;;;5.50;3.30;;;;;;;15.21;36.44;100386.09;6320486;28;20040;-76
2023/03/19 10:03:02;;;;;;;7.28;2.85;;;;;;;15.06;37.76;100394.19;6321518;28;20046;-76
2023/03/19 10:06:12;;;;;;;3.33;2.20;;;;;;;15.20;36.69;100384.44;6320480;28;20122;-76
2023/03/19 10:09:31;;;;;;;3.50;2.40;;;;;;;15.49;36.25;100392.75;6325161;28;20403;-76
2023/03/19 10:12:53;;;;;;;3.67;2.30;;;;;;;15.69;36.88;100389.44;6325485;28;20051;-75
2023/03/19 10:15:55;;;;;;;5.10;2.90;;;;;;;15.60;34.84;100384.03;6324871;28;20051;-76
2023/03/19 10:19:01;;;;;;;;;;;;;;;15.70;35.87;100385.84;6325545;28;20116;-71
2023/03/19 10:22:07;;;;;;;3.40;2.28;;;;;;;15.94;35.60;100384.94;6324909;28;20379;-76
2023/03/19 10:25:21;;;;;;;3.90;2.60;;;;;;;15.82;34.00;100378.81;6326061;28;20044;-76
2023/03/19 10:28:22;;;;;;;5.55;2.65;;;;;;;16.08;35.67;100374.16;6325918;28;20051;-76
2023/03/19 10:31:28;;;;;;;6.38;2.50;;;;;;;16.02;33.61;100365.88;6324527;28;20553;-76
2023/03/19 10:34:34;;;;;;;5.47;2.95;;;;;;;16.10;33.49;100364.34;6324465;28;20044;-70
2023/03/19 10:37:35;;;;;;;3.75;2.40;;;;;;;15.98;33.15;100351.28;6325559;28;20055;-71
2023/03/19 10:40:47;;;;;;;2.87;2.10;;;;;;;15.76;32.80;100365.31;6325699;28;20047;-71
2023/03/19 10:44:00;;;;;;;3.20;2.20;;;;;;;16.08;31.76;100363.63;6324376;28;20442;-76
2023/03/19 10:47:10;;;;;;;;;;;;;;;16.00;30.89;100352.88;6325719;28;20570;-72
2023/03/19 10:50:22;;;;;;;1.63;1.48;;;;;;;16.03;30.00;100344.72;6324357;28;19920;-71
2023/03/19 10:53:43;;;;;;;2.05;1.70;;;;;;;16.05;30.28;100347.25;6325130;28;20060;-71
2023/03/19 10:56:48;;;;;;;3.97;2.20;;;;;;;16.23;32.10;100342.31;6324981;28;20047;-71
2023/03/19 10:59:49;;;;;;;11.68;2.20;;;;;;;16.46;31.14;100345.72;6325076;28;20040;-71
2023/03/19 11:02:53;;;;;;;6.28;2.67;;;;;;;16.70;29.77;100343.72;6323692;28;20465;-71
2023/03/19 11:06:06;;;;;;;4.35;2.13;;;;;;;16.70;29.74;100345.53;6323517;28;20119;-76
2023/03/19 11:09:07;;;;;;;3.88;2.47;;;;;;;16.04;30.03;100330.63;6323757;28;20119;-76
2023/03/19 11:12:25;;;;;;;3.55;2.15;;;;;;;16.25;28.41;100325.41;6324851;28;20042;-76
2023/03/19 11:15:32;;;;;;;3.75;2.25;;;;;;;16.41;29.99;100319.75;6324732;28;20055;-76
2023/03/19 11:18:38;;;;;;;4.05;2.05;;;;;;;16.36;28.74;100306.13;6322550;28;20124;-76
2023/03/19 11:21:39;;;;;;;6.93;2.58;;;;;;;15.96;28.86;100306.69;6323381;28;20040;-76
2023/03/19 11:24:41;;;;;;;3.40;2.10;;;;;;;16.40;30.97;100304.06;6323160;28;20415;-76
2023/03/19 11:27:42;;;;;;;3.55;2.30;;;;;;;16.74;30.96;100299.50;6324356;28;20123;-72
2023/03/19 11:31:02;;;;;;;6.63;3.00;;;;;;;17.02;30.63;100300.69;6323015;28;20062;-76
2023/03/19 11:34:12;;;;;;;3.97;2.25;;;;;;;17.06;31.21;100291.56;6324336;28;20051;-76
2023/03/19 11:37:27;;;;;;;3.50;2.10;;;;;;;17.44;30.29;100274.28;6324046;28;20064;-71
2023/03/19 11:40:30;;;;;;;4.25;2.60;;;;;;;17.49;31.10;100276.50;6322859;28;20040;-72
2023/03/19 11:43:40;;;;;;;3.78;2.30;;;;;;;17.18;30.58;100275.69;6322680;28;20484;-72
2023/03/19 11:46:55;;;;;;;3.25;2.17;;;;;;;17.33;29.07;100275.19;6322596;28;20511;-71
2023/03/19 11:50:17;;;;;;;4.13;2.38;;;;;;;17.14;30.09;100279.53;6323949;28;20127;-71
2023/03/19 11:53:30;;;;;;;6.38;2.90;;;;;;;17.32;29.92;100275.34;6323852;28;20098;-71
2023/03/19 11:56:46;;;;;;;4.88;2.10;;;;;;;17.34;28.85;100270.75;6322685;28;20047;-71
2023/03/19 12:00:07;;;;;;;2.90;2.30;;;;;;;17.32;29.35;100275.34;6322652;28;20040;-71
2023/03/19 12:03:35;;;;;;;3.25;2.05;;;;;;;17.66;29.27;100267.94;6322821;28;20244;-76
2023/03/19 12:06:54;;;;;;;4.93;2.17;;;;;;;17.53;29.33;100264.72;6322682;28;20036;-76
2023/03/19 12:10:22;;;;;;;3.55;2.15;;;;;;;17.44;28.96;100258.47;6323689;28;20039;-71
2023/03/19 12:13:28;;;;;;;4.65;1.83;;;;;;;17.94;30.10;100255.00;6301824;28;20060;-71
2023/03/19 12:16:32;;;;;;;2.60;2.00;;;;;;;17.68;28.60;100244.09;6323669;28;20044;-71
2023/03/19 12:19:45;;;;;;;4.55;2.10;;;;;;;17.67;29.21;100243.25;6321884;28;20036;-71
2023/03/19 12:23:01;;;;;;;3.35;1.98;;;;;;;17.81;27.61;100241.19;6322025;28;20036;-76
2023/03/19 12:26:08;;;;;;;2.40;1.80;;;;;;;17.55;27.39;100240.84;6323488;28;20048;-76
2023/03/19 12:29:42;;;;;;;3.10;1.90;;;;;;;17.66;27.14;100230.19;6321706;28;20471;-71
2023/03/19 12:33:09;;;;;;;6.18;1.80;;;;;;;17.81;28.28;100228.00;6316369;28;20056;-71
2023/03/19 12:36:25;;;;;;;2.88;2.10;;;;;;;17.54;27.29;100218.91;6321987;28;20052;-76
2023/03/19 12:39:34;;;;;;;4.55;2.00;;;;;;;17.54;27.62;100218.91;6323094;28;20410;-76
2023/03/19 12:42:38;;;;;;;1.88;1.60;;;;;;;17.58;26.67;100212.38;6323194;28;20085;-76
2023/03/19 12:45:47;;;;;;;3.58;1.92;;;;;;;17.72;27.37;100216.44;6322912;28;20131;-76
2023/03/19 12:48:52;;;;;;;2.95;1.70;;;;;;;17.86;27.12;100212.63;6322020;28;20040;-76
2023/03/19 12:52:06;;;;;;;3.13;1.70;;;;;;;17.44;27.77;100202.22;6321352;28;20352;-71
2023/03/19 12:55:20;;;;;;;3.13;1.50;;;;;;;17.48;28.35;100199.19;6322416;28;20043;-70
2023/03/19 12:58:31;;;;;;;2.33;1.58;;;;;;;17.32;27.95;100197.06;6320934;28;20051;-71
2023/03/19 13:01:41;;;;;;;2.15;1.70;;;;;;;17.52;27.37;100203.22;6321042;28;20265;-71
2023/03/19 13:04:52;;;;;;;4.45;1.48;;;;;;;17.50;27.55;100201.66;6321177;28;20563;-71
2023/03/19 13:08:12;;;;;;;4.00;1.65;;;;;;;17.40;26.92;100193.75;6321133;28;20052;-71
2023/03/19 13:11:19;;;;;;;2.90;1.55;;;;;;;17.47;27.41;100194.88;6322064;28;20185;-71
2023/03/19 13:14:49;;;;;;;1.55;1.45;;;;;;;17.58;27.84;100187.81;6321983;28;20048;-71
2023/03/19 13:18:14;;;;;;;7.85;3.85;;;;;;;17.18;28.03;100184.22;6312644;28;20447;-76
2023/03/19 13:21:40;;;;;;;2.30;1.58;;;;;;;17.08;27.82;100180.72;6299601;28;20040;-76
2023/03/19 13:24:44;;;;;;;1.75;1.60;;;;;;;17.18;28.29;100176.31;6296936;28;20495;-76
2023/03/19 13:27:53;;;;;;;5.25;3.00;;;;;;;17.23;29.05;100163.56;6297101;28;20064;-70
2023/03/19 13:31:06;;;;;;;2.95;1.98;;;;;;;17.08;28.13;100167.53;6295613;28;20044;-76
2023/03/19 13:34:20;;;;;;;4.30;2.28;;;;;;;17.00;27.69;100156.81;6295745;28;20052;-75
2023/03/19 13:37:25;;;;;;;4.18;1.70;;;;;;;16.78;27.87;100156.00;6296640;28;20115;-71
2023/03/19 13:40:47;;;;;;;2.55;1.70;;;;;;;16.65;28.69;100158.84;6295849;28;20071;-76
2023/03/19 13:43:52;;;;;;;;;;;;;;;16.79;29.51;100165.56;6295757;28;20480;-71
2023/03/19 13:46:53;;;;;;;2.25;1.60;;;;;;;16.92;28.08;100152.19;6294920;28;19928;-75
2023/03/19 13:50:18;;;;;;;3.42;1.65;;;;;;;16.91;28.10;100145.28;6296665;28;20045;-76
2023/03/19 13:53:51;;;;;;;2.42;1.77;;;;;;;17.15;28.48;100139.66;6296582;28;20496;-76
2023/03/19 13:57:02;;;;;;;2.42;1.38;;;;;;;17.44;27.52;100129.22;6295298;28;20044;-76
2023/03/19 14:00:41;;;;;;;4.38;2.00;;;;;;;17.49;28.64;100124.34;6296595;28;20044;-71
2023/03/19 14:04:03;;;;;;;5.18;1.85;;;;;;;17.33;29.07;100132.78;6295792;28;20129;-71
2023/03/19 14:07:16;;;;;;;6.40;1.70;;;;;;;17.04;28.23;100124.78;6294857;28;20041;-72
2023/03/19 14:10:24;;;;;;;;;;;;;;;16.76;29.47;100125.47;6329008;28;20040;-71
2023/03/19 14:13:33;;;;;;;2.88;1.70;;;;;;;16.71;29.91;100134.59;6296059;28;20280;-76
2023/03/19 14:16:40;;;;;;;3.92;1.92;;;;;;;17.03;28.43;100123.13;6295215;28;20049;-71
2023/03/19 14:19:41;;;;;;;2.30;1.70;;;;;;;17.07;27.52;100121.03;6296123;28;20407;-76
2023/03/19 14:23:07;;;;;;;5.30;1.37;;;;;;;17.23;28.35;100115.25;6295201;28;20063;-76